Time;durP1;ratioP1;P1;durP2;ratioP2;P2;SDS_P1;SDS_P2;PMS_P1;PMS_P2;Temp;Humidity;BMP_temperature;BMP_pressure;BME280_temperature;BME280_humidity;BME280_pressure;Samples;Min_cycle;Max_cycle;Signal;HPM_P1;HPM_P2
2022/12/01 00:02:21;;;;;;;89.07;44.83;;;1.20;99.90;;;;;;5069371;28;20461;-52
2022/12/01 00:04:48;;;;;;;85.60;41.80;;;1.10;99.90;;;;;;5071886;28;20534;-52
2022/12/01 00:07:16;;;;;;;83.60;40.83;;;1.20;99.90;;;;;;5075995;28;20453;-51
2022/12/01 00:12:30;;;;;;;84.27;42.10;;;1.20;99.90;;;;;;5072781;28;21018;-51
2022/12/01 00:14:59;;;;;;;88.23;42.07;;;1.20;99.90;;;;;;5071175;28;20519;-51
2022/12/01 00:17:27;;;;;;;92.60;39.97;;;1.30;99.90;;;;;;5069125;28;20459;-52
2022/12/01 00:19:54;;;;;;;82.27;39.53;;;1.20;99.90;;;;;;5061239;28;20478;-51
2022/12/01 00:22:22;;;;;;;85.63;39.80;;;1.20;99.90;;;;;;5071028;28;20815;-53
2022/12/01 00:24:48;;;;;;;86.13;39.87;;;1.20;99.90;;;;;;5072146;28;20485;-51
2022/12/01 00:27:15;;;;;;;74.83;39.60;;;1.10;99.90;;;;;;5074282;28;20603;-51
2022/12/01 00:29:41;;;;;;;76.40;40.00;;;1.20;99.90;;;;;;5073779;28;20828;-51
2022/12/01 00:32:08;;;;;;;83.10;40.00;;;1.10;99.90;;;;;;5066318;28;20892;-51
2022/12/01 00:34:36;;;;;;;76.83;37.87;;;1.20;99.90;;;;;;5071406;28;20457;-51
2022/12/01 00:37:03;;;;;;;79.47;38.10;;;1.20;99.90;;;;;;5064598;28;20486;-51
2022/12/01 00:39:31;;;;;;;82.57;38.00;;;1.10;99.90;;;;;;5070544;28;20518;-51
2022/12/01 00:41:58;;;;;;;68.93;35.83;;;1.10;99.90;;;;;;5060829;28;20514;-51
2022/12/01 00:44:24;;;;;;;73.40;36.93;;;1.20;99.90;;;;;;5076787;28;20822;-51
2022/12/01 00:46:51;;;;;;;73.00;35.80;;;1.10;99.90;;;;;;5069719;28;20534;-51
2022/12/01 00:49:17;;;;;;;70.93;35.40;;;1.10;99.90;;;;;;5073928;28;20469;-51
2022/12/01 00:51:44;;;;;;;76.90;35.87;;;1.10;99.90;;;;;;5066498;28;20905;-50
2022/12/01 00:54:10;;;;;;;67.97;34.90;;;1.10;99.90;;;;;;5071495;28;20546;-51
2022/12/01 00:56:38;;;;;;;70.50;35.17;;;1.10;99.90;;;;;;5070421;28;20477;-51
2022/12/01 00:59:05;;;;;;;72.87;37.40;;;1.10;99.90;;;;;;5066265;28;20978;-51
2022/12/01 01:01:31;;;;;;;64.97;35.37;;;1.10;99.90;;;;;;5071340;28;20537;-51
2022/12/01 01:03:58;;;;;;;78.27;37.20;;;1.10;99.90;;;;;;5069809;28;20843;-52
2022/12/01 01:06:25;;;;;;;78.73;36.33;;;1.10;99.90;;;;;;5070058;28;20501;-51
2022/12/01 01:08:51;;;;;;;68.90;36.63;;;1.00;99.90;;;;;;5070107;28;20796;-51
2022/12/01 01:11:18;;;;;;;73.67;36.93;;;1.00;99.90;;;;;;5072104;28;20457;-51
2022/12/01 01:13:46;;;;;;;77.70;37.17;;;1.00;99.90;;;;;;5068234;28;20868;-51
2022/12/01 01:16:15;;;;;;;80.67;37.37;;;0.90;99.90;;;;;;5065166;28;20574;-51
2022/12/01 01:18:42;;;;;;;77.97;38.10;;;0.90;99.90;;;;;;5062401;28;20547;-51
2022/12/01 01:21:12;;;;;;;80.03;38.67;;;0.90;99.90;;;;;;5069100;28;20501;-50
2022/12/01 01:23:39;;;;;;;84.77;39.57;;;0.90;99.90;;;;;;5071602;28;20457;-51
2022/12/01 01:26:07;;;;;;;84.30;39.20;;;0.80;99.90;;;;;;5063756;28;20478;-52
2022/12/01 01:28:34;;;;;;;67.93;38.73;;;0.90;99.90;;;;;;5070127;28;20578;-51
2022/12/01 01:31:06;;;;;;;89.00;42.87;;;0.90;99.90;;;;;;5066562;28;20867;-52
2022/12/01 01:33:33;;;;;;;81.10;39.27;;;0.90;99.90;;;;;;5064945;28;20538;-52
2022/12/01 01:36:00;;;;;;;75.57;37.13;;;0.90;99.90;;;;;;5058072;28;20486;-50
2022/12/01 01:38:27;;;;;;;83.50;38.37;;;1.00;99.90;;;;;;5070457;28;20515;-52
2022/12/01 01:40:53;;;;;;;85.03;38.50;;;0.90;99.90;;;;;;5070885;28;20480;-52
2022/12/01 01:43:39;;;;;;;75.53;38.00;;;0.90;99.90;;;;;;5064814;28;20464;-52
2022/12/01 01:46:07;;;;;;;78.67;39.37;;;0.90;99.90;;;;;;5067896;28;20526;-52
2022/12/01 01:48:35;;;;;;;76.77;36.03;;;0.80;99.90;;;;;;5069759;28;20460;-52
2022/12/01 01:51:02;;;;;;;81.07;38.47;;;0.80;99.90;;;;;;5070908;28;20499;-52
2022/12/01 01:53:30;;;;;;;81.13;37.10;;;0.80;99.90;;;;;;5070160;28;20873;-52
2022/12/01 01:55:57;;;;;;;77.50;35.30;;;0.80;99.90;;;;;;5067689;28;20484;-52
2022/12/01 01:58:24;;;;;;;80.23;37.87;;;0.80;99.90;;;;;;5069233;28;20465;-51
2022/12/01 02:00:50;;;;;;;73.63;36.23;;;0.80;99.90;;;;;;5069575;28;20483;-52
2022/12/01 02:03:20;;;;;;;83.90;37.13;;;0.80;99.90;;;;;;5058380;28;20500;-52
2022/12/01 02:05:46;;;;;;;76.60;35.67;;;0.90;99.90;;;;;;5066855;28;20538;-52
2022/12/01 02:08:13;;;;;;;77.67;37.67;;;0.90;99.90;;;;;;5062158;28;20453;-50
2022/12/01 02:10:55;;;;;;;85.93;36.93;;;0.90;99.90;;;;;;5068551;28;20461;-51
2022/12/01 02:13:29;;;;;;;74.27;35.80;;;0.90;99.90;;;;;;5069506;28;20461;-51
2022/12/01 02:16:08;;;;;;;72.90;36.20;;;0.90;99.90;;;;;;5066353;28;20885;-51
2022/12/01 02:18:46;;;;;;;76.83;36.63;;;0.90;99.90;;;;;;5064349;28;20469;-51
2022/12/01 02:21:32;;;;;;;86.27;38.23;;;0.90;99.90;;;;;;5067666;28;20546;-51
2022/12/01 02:24:32;;;;;;;80.60;37.50;;;0.90;99.90;;;;;;5067026;28;20461;-51
2022/12/01 02:27:02;;;;;;;81.70;40.63;;;0.90;99.90;;;;;;5067108;28;20453;-51
2022/12/01 02:30:01;;;;;;;85.13;38.70;;;0.80;99.90;;;;;;5066995;28;22124;-52
2022/12/01 02:32:33;;;;;;;82.47;37.40;;;0.80;99.90;;;;;;5050269;28;20518;-52
2022/12/01 02:35:08;;;;;;;83.77;39.00;;;0.90;99.90;;;;;;5069222;28;20485;-51
2022/12/01 02:37:43;;;;;;;84.60;38.97;;;0.90;99.90;;;;;;5065748;28;20465;-51
2022/12/01 02:40:18;;;;;;;80.73;37.93;;;0.80;99.90;;;;;;5065226;28;21012;-51
2022/12/01 02:42:52;;;;;;;79.53;37.63;;;0.80;99.90;;;;;;5067105;28;20886;-51
2022/12/01 02:45:34;;;;;;;82.50;38.93;;;0.80;99.90;;;;;;5062191;28;20480;-51
2022/12/01 02:48:07;;;;;;;94.77;40.77;;;0.90;99.90;;;;;;5069469;28;20460;-52
2022/12/01 02:50:36;;;;;;;90.67;39.40;;;0.90;99.90;;;;;;5070767;28;20460;-51
2022/12/01 02:53:06;;;;;;;85.20;38.40;;;0.90;99.90;;;;;;5072655;28;20869;-51
2022/12/01 02:55:32;;;;;;;84.97;37.97;;;1.00;99.90;;;;;;5071414;28;21149;-51
2022/12/01 02:57:59;;;;;;;96.87;42.53;;;1.00;99.90;;;;;;5071511;28;20460;-51
2022/12/01 03:00:26;;;;;;;86.83;38.77;;;1.00;99.90;;;;;;5059678;28;20460;-52
2022/12/01 03:03:24;;;;;;;88.23;39.93;;;1.00;99.90;;;;;;5077424;28;20457;-51
2022/12/01 03:06:00;;;;;;;76.50;38.47;;;1.00;99.90;;;;;;5063975;28;21001;-52
2022/12/01 03:08:34;;;;;;;101.20;41.30;;;0.90;99.90;;;;;;5067250;28;20539;-52
2022/12/01 03:11:02;;;;;;;92.53;40.60;;;1.00;99.90;;;;;;5068469;28;20453;-52
2022/12/01 03:13:40;;;;;;;91.53;41.40;;;1.00;99.90;;;;;;5068075;28;20456;-51
2022/12/01 03:16:12;;;;;;;82.33;38.93;;;1.00;99.90;;;;;;5069086;28;20476;-51
2022/12/01 03:18:45;;;;;;;79.80;39.40;;;1.00;99.90;;;;;;5074510;28;20492;-52
2022/12/01 03:21:17;;;;;;;99.63;43.43;;;1.00;99.90;;;;;;5073106;28;20507;-52
2022/12/01 03:23:48;;;;;;;98.47;40.73;;;1.00;99.90;;;;;;5067810;28;20492;-51
2022/12/01 03:26:18;;;;;;;95.60;42.77;;;1.00;99.90;;;;;;5072005;28;20477;-51
2022/12/01 03:28:48;;;;;;;95.97;42.73;;;1.00;99.90;;;;;;5071813;28;20464;-50
2022/12/01 03:31:18;;;;;;;73.80;37.27;;;1.00;99.90;;;;;;5072781;28;20473;-51
2022/12/01 03:33:49;;;;;;;77.87;36.80;;;1.00;99.90;;;;;;5070092;28;20462;-51
2022/12/01 03:36:23;;;;;;;84.20;39.83;;;1.00;99.90;;;;;;5072953;28;20504;-51
2022/12/01 03:38:54;;;;;;;75.80;38.10;;;0.90;99.90;;;;;;5071390;28;20537;-50
2022/12/01 03:41:25;;;;;;;80.70;35.93;;;1.00;99.90;;;;;;5071165;28;20473;-48
2022/12/01 03:44:00;;;;;;;82.93;37.80;;;1.00;99.90;;;;;;5079347;28;20469;-49
2022/12/01 03:46:36;;;;;;;78.20;35.77;;;0.90;99.90;;;;;;5068566;28;20980;-53
2022/12/01 03:49:07;;;;;;;68.17;34.27;;;0.80;99.90;;;;;;5068784;28;20456;-53
2022/12/01 03:51:42;;;;;;;72.87;34.80;;;0.80;99.90;;;;;;5079646;28;20457;-54
2022/12/01 03:54:13;;;;;;;66.27;33.27;;;0.90;99.90;;;;;;5072620;28;20467;-54
2022/12/01 03:56:46;;;;;;;63.43;35.67;;;0.80;99.90;;;;;;5069031;28;20457;-55
2022/12/01 03:59:14;;;;;;;74.27;36.20;;;0.80;99.90;;;;;;5073684;28;20518;-54
2022/12/01 04:01:41;;;;;;;76.87;34.80;;;0.80;99.90;;;;;;5070663;28;20518;-54
2022/12/01 04:04:11;;;;;;;67.27;34.73;;;0.90;99.90;;;;;;5072128;28;20509;-53
2022/12/01 04:06:40;;;;;;;74.97;34.93;;;0.90;99.90;;;;;;5064687;28;20484;-55
2022/12/01 04:09:06;;;;;;;71.93;33.63;;;0.80;99.90;;;;;;5070842;28;20496;-54
2022/12/01 04:14:18;;;;;;;71.17;37.33;;;0.90;99.90;;;;;;5073450;28;20428;-55
2022/12/01 04:16:44;;;;;;;79.30;39.70;;;0.80;99.90;;;;;;5073707;28;21537;-54
2022/12/01 04:19:12;;;;;;;70.70;36.07;;;0.90;99.90;;;;;;5059897;28;20457;-54
2022/12/01 04:21:39;;;;;;;76.23;37.57;;;0.90;99.90;;;;;;5067694;28;20485;-55
2022/12/01 04:24:07;;;;;;;78.43;36.60;;;0.80;99.90;;;;;;5065140;28;20519;-53
2022/12/01 04:26:36;;;;;;;77.60;37.87;;;0.80;99.90;;;;;;5064312;28;20513;-54
2022/12/01 04:29:05;;;;;;;73.23;34.07;;;0.90;99.90;;;;;;5071180;28;20892;-55
2022/12/01 04:31:32;;;;;;;70.73;37.23;;;0.70;99.90;;;;;;5074116;28;20487;-55
2022/12/01 04:33:59;;;;;;;75.40;37.83;;;0.60;99.90;;;;;;5071629;28;20971;-54
2022/12/01 04:36:29;;;;;;;78.87;37.50;;;0.60;99.90;;;;;;5070882;28;20484;-53
2022/12/01 04:38:56;;;;;;;65.83;37.00;;;0.60;99.90;;;;;;5071747;28;20546;-54
2022/12/01 04:41:23;;;;;;;68.93;38.30;;;0.60;99.90;;;;;;5063332;28;20484;-54
2022/12/01 04:43:52;;;;;;;71.63;37.03;;;0.50;99.90;;;;;;5070242;28;21024;-54
2022/12/01 04:46:19;;;;;;;76.27;40.07;;;0.50;99.90;;;;;;5069838;28;20575;-54
2022/12/01 04:48:45;;;;;;;72.50;39.50;;;0.50;99.90;;;;;;5068628;28;20469;-53
2022/12/01 04:51:12;;;;;;;68.90;37.50;;;0.50;99.90;;;;;;5070563;28;20507;-53
2022/12/01 04:53:40;;;;;;;69.47;38.37;;;0.50;99.90;;;;;;5072626;28;20464;-53
2022/12/01 04:56:07;;;;;;;69.17;35.30;;;0.60;99.90;;;;;;5069422;28;20509;-54
2022/12/01 04:58:35;;;;;;;72.93;36.03;;;0.60;99.90;;;;;;5065458;28;21039;-54
2022/12/01 05:01:03;;;;;;;72.50;39.57;;;0.60;99.90;;;;;;5069328;28;20453;-54
2022/12/01 05:03:30;;;;;;;68.90;38.87;;;0.60;99.90;;;;;;5068816;28;20457;-54
2022/12/01 05:06:03;;;;;;;69.43;38.33;;;0.60;99.90;;;;;;5085624;22;21413;-51
2022/12/01 05:08:30;;;;;;;75.77;41.50;;;0.60;99.90;;;;;;5083981;28;20506;-51
2022/12/01 05:10:58;;;;;;;69.97;37.13;;;0.60;99.90;;;;;;5087893;28;20496;-50
2022/12/01 05:13:24;;;;;;;70.90;38.83;;;0.60;99.90;;;;;;5087098;28;20492;-51
2022/12/01 05:15:51;;;;;;;67.83;38.80;;;0.60;99.90;;;;;;5084193;28;20473;-51
2022/12/01 05:18:18;;;;;;;76.97;39.17;;;0.50;99.90;;;;;;5071809;28;20492;-51
2022/12/01 05:20:55;;;;;;;71.60;38.87;;;0.50;99.90;;;;;;5069794;28;20484;-51
2022/12/01 05:23:22;;;;;;;67.47;38.93;;;0.60;99.90;;;;;;5066302;28;20461;-50
2022/12/01 05:25:49;;;;;;;60.43;36.97;;;0.60;99.90;;;;;;5079196;28;20508;-51
2022/12/01 05:28:17;;;;;;;72.00;37.80;;;0.70;99.90;;;;;;5079988;28;20492;-51
2022/12/01 05:30:43;;;;;;;71.03;38.90;;;0.70;99.90;;;;;;5075318;28;20465;-51
2022/12/01 05:33:10;;;;;;;75.13;43.10;;;0.60;99.90;;;;;;5076543;28;20818;-50
2022/12/01 05:35:36;;;;;;;67.30;38.30;;;0.70;99.90;;;;;;5068772;28;20562;-51
2022/12/01 05:38:03;;;;;;;74.83;39.40;;;0.60;99.90;;;;;;5066927;28;20578;-51
2022/12/01 05:40:30;;;;;;;74.77;39.27;;;0.60;99.90;;;;;;5077089;28;20484;-51
2022/12/01 05:42:57;;;;;;;68.03;40.07;;;0.60;99.90;;;;;;5069114;28;20559;-51
2022/12/01 05:45:27;;;;;;;72.47;38.30;;;0.60;99.90;;;;;;5070628;28;21297;-52
2022/12/01 05:47:55;;;;;;;70.47;40.60;;;0.60;99.90;;;;;;5056481;28;20524;-50
2022/12/01 05:50:22;;;;;;;74.73;41.20;;;0.60;99.90;;;;;;5072903;28;20466;-51
2022/12/01 05:52:48;;;;;;;69.40;41.60;;;0.60;99.90;;;;;;5080999;28;20481;-50
2022/12/01 05:55:15;;;;;;;72.93;40.80;;;0.60;99.90;;;;;;5078024;28;20460;-50
2022/12/01 05:57:42;;;;;;;69.20;41.43;;;0.60;99.90;;;;;;5064353;28;20493;-55
2022/12/01 06:00:10;;;;;;;66.53;39.83;;;0.60;99.90;;;;;;5065952;28;21044;-51
2022/12/01 06:02:38;;;;;;;69.70;39.57;;;0.60;99.90;;;;;;5065047;28;20512;-50
2022/12/01 06:05:06;;;;;;;75.90;42.27;;;0.70;99.90;;;;;;5062586;28;20573;-51
2022/12/01 06:07:34;;;;;;;69.40;40.90;;;0.70;99.90;;;;;;5063986;28;20535;-51
2022/12/01 06:10:02;;;;;;;80.17;44.10;;;0.70;99.90;;;;;;5062378;28;20461;-52
2022/12/01 06:12:29;;;;;;;74.80;42.87;;;0.70;99.90;;;;;;5065601;28;20504;-51
2022/12/01 06:14:55;;;;;;;79.63;42.10;;;0.70;72.00;;;;;;5072277;28;20496;-50
2022/12/01 06:17:22;;;;;;;78.93;46.33;;;0.60;20.10;;;;;;5080534;28;20537;-51
2022/12/01 06:19:50;;;;;;;77.67;44.30;;;0.60;20.50;;;;;;5065933;28;20468;-51
2022/12/01 06:22:16;;;;;;;75.70;42.23;;;0.60;22.00;;;;;;5065337;28;20511;-52
2022/12/01 06:24:43;;;;;;;83.23;45.43;;;0.50;78.20;;;;;;5062501;28;20860;-51
2022/12/01 06:27:10;;;;;;;74.23;42.27;;;0.60;82.90;;;;;;5064728;28;20565;-51
2022/12/01 06:29:36;;;;;;;74.60;45.43;;;0.50;76.50;;;;;;5068413;28;20489;-50
2022/12/01 06:32:03;;;;;;;77.00;44.97;;;0.50;20.10;;;;;;5072178;28;20519;-51
2022/12/01 06:34:29;;;;;;;75.27;44.80;;;0.60;92.40;;;;;;5077410;28;20496;-51
2022/12/01 06:36:57;;;;;;;75.70;42.97;;;0.60;99.90;;;;;;5068631;28;20554;-53
2022/12/01 06:39:24;;;;;;;79.53;44.73;;;0.60;82.10;;;;;;5066336;28;20970;-52
2022/12/01 06:41:51;;;;;;;76.83;45.00;;;0.60;20.40;;;;;;5074785;28;20909;-50
2022/12/01 06:44:17;;;;;;;82.93;46.63;;;0.50;21.90;;;;;;5073813;28;20492;-52
2022/12/01 06:46:44;;;;;;;83.43;47.30;;;0.50;82.10;;;;;;5063662;28;20504;-51
2022/12/01 06:49:11;;;;;;;90.93;47.97;;;0.50;94.40;;;;;;5063921;28;20488;-51
2022/12/01 06:51:38;;;;;;;79.93;48.47;;;0.60;84.30;;;;;;5071472;28;20456;-50
2022/12/01 06:54:06;;;;;;;92.43;48.40;;;0.50;75.50;;;;;;5072199;28;20487;-52
2022/12/01 06:56:33;;;;;;;84.93;49.37;;;0.50;20.60;;;;;;5073097;28;20477;-51
2022/12/01 06:58:59;;;;;;;87.30;49.50;;;0.60;88.00;;;;;;5079403;28;20538;-51
2022/12/01 07:01:27;;;;;;;82.67;45.87;;;0.60;97.30;;;;;;5077557;28;20525;-51
2022/12/01 07:03:54;;;;;;;77.37;45.60;;;0.70;99.90;;;;;;5079731;28;20492;-52
2022/12/01 07:06:21;;;;;;;96.07;50.30;;;0.70;80.00;;;;;;5077426;28;20571;-51
2022/12/01 07:08:47;;;;;;;79.73;49.00;;;0.70;82.90;;;;;;5083830;28;20488;-51
2022/12/01 07:11:16;;;;;;;86.27;49.53;;;0.70;24.70;;;;;;5081477;28;21187;-52
2022/12/01 07:13:44;;;;;;;91.07;52.07;;;0.60;25.60;;;;;;5073871;28;20484;-53
2022/12/01 07:16:11;;;;;;;86.17;47.23;;;0.60;27.80;;;;;;5073820;28;20484;-52
2022/12/01 07:18:39;;;;;;;84.40;48.20;;;0.60;23.60;;;;;;5071264;28;21021;-52
2022/12/01 07:21:08;;;;;;;95.00;51.30;;;0.60;22.00;;;;;;5073118;28;20900;-52
2022/12/01 07:23:35;;;;;;;103.97;53.03;;;0.70;24.80;;;;;;5065842;28;20488;-51
2022/12/01 07:26:04;;;;;;;94.73;54.00;;;0.60;29.70;;;;;;5075213;28;20518;-51
2022/12/01 07:28:32;;;;;;;88.87;51.70;;;0.70;23.40;;;;;;5079232;28;20460;-51
2022/12/01 07:31:03;;;;;;;108.63;58.17;;;0.60;28.00;;;;;;5066688;28;20492;-51
2022/12/01 07:33:30;;;;;;;102.47;57.83;;;0.70;26.70;;;;;;5072398;28;20456;-51
2022/12/01 07:35:57;;;;;;;107.20;56.40;;;0.70;28.30;;;;;;5070716;28;20481;-51
2022/12/01 07:38:23;;;;;;;120.33;58.50;;;0.60;30.40;;;;;;5078118;28;20499;-51
2022/12/01 07:40:50;;;;;;;115.10;58.63;;;0.50;25.60;;;;;;5075090;28;20465;-51
2022/12/01 07:43:16;;;;;;;102.40;57.00;;;0.60;23.50;;;;;;5079867;28;20503;-52
2022/12/01 07:45:44;;;;;;;116.03;60.37;;;0.60;23.40;;;;;;5079019;28;21265;-50
2022/12/01 07:48:11;;;;;;;109.10;57.13;;;0.60;27.00;;;;;;5072058;28;20457;-50
2022/12/01 07:50:38;;;;;;;107.83;57.20;;;0.70;25.30;;;;;;5055678;28;20531;-51
2022/12/01 07:53:04;;;;;;;116.57;60.83;;;0.70;24.50;;;;;;5062324;28;20940;-52
2022/12/01 07:55:31;;;;;;;114.40;61.20;;;0.70;23.30;;;;;;5059956;28;20501;-51
2022/12/01 07:57:59;;;;;;;114.03;60.80;;;0.80;22.10;;;;;;5056656;28;20493;-51
2022/12/01 08:00:25;;;;;;;122.93;61.87;;;0.80;23.40;;;;;;5058304;28;20560;-50
2022/12/01 08:02:53;;;;;;;121.10;62.63;;;0.80;26.30;;;;;;5062369;28;20554;-50
2022/12/01 08:05:20;;;;;;;121.63;64.00;;;0.80;27.50;;;;;;5066753;28;20472;-51
2022/12/01 08:07:46;;;;;;;119.47;64.20;;;0.80;32.40;;;;;;5077846;28;20469;-51
2022/12/01 08:10:13;;;;;;;115.93;61.67;;;0.90;25.90;;;;;;5068410;28;20506;-51
2022/12/01 08:12:40;;;;;;;130.40;62.20;;;0.90;26.70;;;;;;5065063;28;20496;-50
2022/12/01 08:15:07;;;;;;;126.03;64.10;;;0.70;36.00;;;;;;5067315;28;20473;-50
2022/12/01 08:17:34;;;;;;;118.87;63.30;;;0.80;30.40;;;;;;5068015;28;20457;-51
2022/12/01 08:20:02;;;;;;;125.07;65.40;;;0.70;31.90;;;;;;5072989;28;20534;-51
2022/12/01 08:22:28;;;;;;;136.80;65.97;;;0.80;26.30;;;;;;5069612;28;20577;-50
2022/12/01 08:24:55;;;;;;;127.63;66.37;;;0.70;32.20;;;;;;5067433;28;20492;-51
2022/12/01 08:27:21;;;;;;;131.53;65.87;;;0.60;29.50;;;;;;5073785;28;20475;-51
2022/12/01 08:29:48;;;;;;;137.40;67.00;;;0.70;25.50;;;;;;5070582;28;20526;-50
2022/12/01 08:32:16;;;;;;;131.60;68.00;;;0.70;23.80;;;;;;5071723;28;20485;-52
2022/12/01 08:34:43;;;;;;;132.33;65.23;;;0.70;30.40;;;;;;5069587;28;20489;-51
2022/12/01 08:37:11;;;;;;;141.70;69.03;;;0.80;31.80;;;;;;5071366;28;20977;-52
2022/12/01 08:39:37;;;;;;;140.03;66.57;;;0.80;36.60;;;;;;5070476;28;20489;-51
2022/12/01 08:42:04;;;;;;;132.73;64.33;;;0.80;31.40;;;;;;5073130;28;20540;-51
2022/12/01 08:44:31;;;;;;;134.83;67.27;;;0.80;29.20;;;;;;5064595;28;20460;-51
2022/12/01 08:46:57;;;;;;;135.70;68.57;;;0.90;29.10;;;;;;5065575;28;20515;-52
2022/12/01 08:49:25;;;;;;;124.13;62.90;;;0.90;32.40;;;;;;5073106;28;20972;-52
2022/12/01 08:51:51;;;;;;;136.93;68.77;;;0.90;33.80;;;;;;5069291;28;20484;-51
2022/12/01 08:54:19;;;;;;;112.97;59.87;;;0.90;31.40;;;;;;5071487;28;20514;-51
2022/12/01 08:56:46;;;;;;;138.70;66.73;;;1.00;37.10;;;;;;5065497;28;20482;-51
2022/12/01 08:59:13;;;;;;;138.00;68.83;;;0.90;36.10;;;;;;5069329;28;20991;-50
2022/12/01 09:01:50;;;;;;;128.73;63.17;;;1.00;34.90;;;;;;5065389;28;20480;-52
2022/12/01 09:04:18;;;;;;;119.23;61.63;;;1.00;38.10;;;;;;5068977;28;20487;-51
2022/12/01 09:06:46;;;;;;;115.60;60.07;;;1.00;45.60;;;;;;5064968;28;20994;-50
2022/12/01 09:09:15;;;;;;;117.20;58.40;;;1.00;51.30;;;;;;5071131;28;20461;-52
2022/12/01 09:11:43;;;;;;;114.20;60.27;;;1.00;49.20;;;;;;5059487;28;20501;-50
2022/12/01 09:14:10;;;;;;;114.97;59.00;;;0.80;47.70;;;;;;5059147;28;20477;-52
2022/12/01 09:16:36;;;;;;;119.80;60.23;;;0.90;41.10;;;;;;5077619;28;20508;-52
2022/12/01 09:19:03;;;;;;;126.33;62.43;;;0.90;43.00;;;;;;5063929;28;20461;-51
2022/12/01 09:21:31;;;;;;;113.20;59.13;;;1.00;47.00;;;;;;5078120;28;20444;-52
2022/12/01 09:23:59;;;;;;;119.43;61.10;;;1.00;47.40;;;;;;5061366;28;20601;-50
2022/12/01 09:26:26;;;;;;;120.93;62.50;;;1.00;48.50;;;;;;5062012;28;20566;-50
2022/12/01 09:28:55;;;;;;;116.13;59.97;;;1.10;47.30;;;;;;5063213;28;20495;-50
2022/12/01 09:31:23;;;;;;;114.90;63.00;;;1.10;48.60;;;;;;5067792;28;20484;-52
2022/12/01 09:33:54;;;;;;;113.57;60.00;;;1.20;50.70;;;;;;5083048;28;20527;-52
2022/12/01 09:36:20;;;;;;;111.20;57.90;;;1.10;54.90;;;;;;5062894;28;20575;-51
2022/12/01 09:38:47;;;;;;;122.23;58.53;;;1.20;47.00;;;;;;5070345;28;20494;-52
2022/12/01 09:41:18;;;;;;;118.60;62.73;;;1.20;60.90;;;;;;5060113;28;20905;-51
2022/12/01 09:43:48;;;;;;;100.13;56.87;;;1.20;58.00;;;;;;5055722;28;20982;-51
2022/12/01 09:46:20;;;;;;;107.70;57.43;;;1.10;61.90;;;;;;5062774;28;20490;-52
2022/12/01 09:48:49;;;;;;;108.03;54.30;;;1.20;50.40;;;;;;5070905;28;20457;-51
2022/12/01 09:51:17;;;;;;;97.20;52.77;;;1.20;57.80;;;;;;5065940;28;20496;-52
2022/12/01 09:53:44;;;;;;;106.53;56.50;;;1.10;57.40;;;;;;5070625;28;20537;-50
2022/12/01 09:56:20;;;;;;;104.53;52.83;;;1.20;55.90;;;;;;5066347;28;20606;-51
2022/12/01 09:58:49;;;;;;;98.53;53.60;;;1.20;58.80;;;;;;5065930;28;20488;-51
2022/12/01 10:01:19;;;;;;;97.33;52.07;;;1.10;63.70;;;;;;5071455;28;20469;-51
2022/12/01 10:03:52;;;;;;;115.47;55.37;;;1.10;58.90;;;;;;5079637;28;20671;-51
2022/12/01 10:06:24;;;;;;;92.63;52.23;;;0.90;66.00;;;;;;5076927;28;20520;-51
2022/12/01 10:09:02;;;;;;;107.10;52.57;;;1.00;56.10;;;;;;5066053;28;20896;-51
2022/12/01 10:11:32;;;;;;;109.43;52.83;;;1.00;56.60;;;;;;5067323;28;20544;-51
2022/12/01 10:14:00;;;;;;;94.03;53.87;;;1.00;57.30;;;;;;5062590;28;20449;-51
2022/12/01 10:16:32;;;;;;;97.97;50.10;;;1.10;56.30;;;;;;5066570;28;20513;-51
2022/12/01 10:19:04;;;;;;;97.97;52.93;;;1.00;60.20;;;;;;5065068;28;20462;-52
2022/12/01 10:21:44;;;;;;;96.07;51.90;;;1.00;59.30;;;;;;5057469;28;20990;-51
2022/12/01 10:24:26;;;;;;;104.30;51.20;;;1.00;58.00;;;;;;5066696;28;20545;-52
2022/12/01 10:27:02;;;;;;;87.43;49.13;;;1.00;61.40;;;;;;5061651;28;21025;-51
2022/12/01 10:29:41;;;;;;;89.90;49.20;;;1.00;63.70;;;;;;5054793;28;20495;-51
2022/12/01 10:32:17;;;;;;;81.00;47.10;;;1.00;65.10;;;;;;5060965;28;20507;-52
2022/12/01 10:34:45;;;;;;;79.23;46.60;;;1.00;58.00;;;;;;5065178;28;20452;-51
2022/12/01 10:37:16;;;;;;;83.50;46.47;;;1.10;55.20;;;;;;5069909;28;20999;-50
2022/12/01 10:39:46;;;;;;;77.17;44.63;;;1.10;63.90;;;;;;5059281;28;20468;-53
2022/12/01 10:42:16;;;;;;;77.43;45.93;;;1.10;65.80;;;;;;5063178;28;20531;-50
2022/12/01 10:44:44;;;;;;;76.00;45.17;;;1.20;66.10;;;;;;5071539;28;20513;-52
2022/12/01 10:47:19;;;;;;;75.20;45.13;;;1.00;71.40;;;;;;5065902;28;20561;-50
2022/12/01 10:49:45;;;;;;;73.23;45.10;;;1.20;62.00;;;;;;5067401;28;20496;-51
2022/12/01 10:52:34;;;;;;;73.37;43.17;;;1.20;67.90;;;;;;5066393;28;20982;-54
2022/12/01 10:55:03;;;;;;;71.77;43.10;;;1.30;70.20;;;;;;5059958;28;21126;-51
2022/12/01 10:57:31;;;;;;;68.60;42.07;;;1.30;70.30;;;;;;5076934;28;20460;-52
2022/12/01 11:00:01;;;;;;;72.40;42.33;;;1.10;75.80;;;;;;5069052;28;21008;-52
2022/12/01 11:02:31;;;;;;;66.63;41.90;;;0.90;78.40;;;;;;5069829;28;20546;-51
2022/12/01 11:04:59;;;;;;;69.90;42.40;;;0.90;74.50;;;;;;5058415;28;21041;-52
2022/12/01 11:07:29;;;;;;;65.57;41.00;;;1.10;65.00;;;;;;5068439;28;21059;-52
2022/12/01 11:10:16;;;;;;;76.00;46.03;;;1.10;73.00;;;;;;5058454;28;20453;-51
2022/12/01 11:12:44;;;;;;;71.73;45.57;;;1.10;74.10;;;;;;5063981;28;20457;-52
2022/12/01 11:15:20;;;;;;;77.23;47.43;;;1.20;67.20;;;;;;5063454;28;20519;-52
2022/12/01 11:17:48;;;;;;;84.77;50.73;;;1.30;69.60;;;;;;5054546;28;20465;-54
2022/12/01 11:20:27;;;;;;;72.20;45.73;;;1.30;71.40;;;;;;5059266;28;20928;-54
2022/12/01 11:23:23;;;;;;;74.73;43.00;;;1.30;73.30;;;;;;5067927;28;20495;-54
2022/12/01 11:25:57;;;;;;;66.33;42.53;;;1.40;75.20;;;;;;5064472;28;20832;-55
2022/12/01 11:28:25;;;;;;;68.27;42.70;;;1.40;79.10;;;;;;5069849;28;20557;-57
2022/12/01 11:30:56;;;;;;;70.87;44.53;;;1.50;78.10;;;;;;5060214;28;20458;-55
2022/12/01 11:33:24;;;;;;;77.97;45.87;;;1.50;78.10;;;;;;5064844;28;21027;-56
2022/12/01 11:35:51;;;;;;;72.73;42.97;;;1.50;80.40;;;;;;5069417;28;20994;-54
2022/12/01 11:38:21;;;;;;;69.07;42.23;;;1.50;83.10;;;;;;5072922;28;20480;-54
2022/12/01 11:40:50;;;;;;;77.37;44.60;;;1.50;80.20;;;;;;5078381;28;20479;-56
2022/12/01 11:43:24;;;;;;;74.40;44.50;;;1.60;74.00;;;;;;5076942;28;20503;-54
2022/12/01 11:45:51;;;;;;;79.53;45.60;;;1.50;82.40;;;;;;5072912;28;20483;-55
2022/12/01 11:48:26;;;;;;;77.80;46.30;;;1.50;73.70;;;;;;5070575;28;20471;-54
2022/12/01 11:51:05;;;;;;;74.30;44.60;;;1.50;84.60;;;;;;5073626;28;20479;-55
2022/12/01 11:53:34;;;;;;;74.80;45.27;;;1.40;78.70;;;;;;5067070;28;20969;-54
2022/12/01 11:56:22;;;;;;;74.00;42.43;;;1.50;82.60;;;;;;5063028;28;21000;-54
2022/12/01 11:58:50;;;;;;;75.97;46.67;;;1.50;82.40;;;;;;5067319;28;20462;-55
2022/12/01 12:01:28;;;;;;;78.93;47.50;;;1.50;83.70;;;;;;5068334;28;20557;-55
2022/12/01 12:04:04;;;;;;;71.80;43.80;;;1.50;82.50;;;;;;5066734;28;20581;-54
2022/12/01 12:06:36;;;;;;;73.20;44.40;;;1.50;84.10;;;;;;5077302;28;22521;-54
2022/12/01 12:09:18;;;;;;;74.00;43.90;;;1.50;79.70;;;;;;5071091;28;20457;-55
2022/12/01 12:11:52;;;;;;;78.27;46.57;;;1.40;81.80;;;;;;5079521;28;20516;-54
2022/12/01 12:14:38;;;;;;;69.90;44.50;;;1.40;81.50;;;;;;5066832;28;20517;-55
2022/12/01 12:17:19;;;;;;;73.27;45.57;;;1.40;71.90;;;;;;5076071;28;20523;-56
2022/12/01 12:20:00;;;;;;;65.67;42.37;;;1.40;75.00;;;;;;5069707;28;20880;-55
2022/12/01 12:22:36;;;;;;;67.33;43.93;;;1.40;76.90;;;;;;5077045;28;20510;-55
2022/12/01 12:25:19;;;;;;;69.10;42.73;;;1.40;71.30;;;;;;5061191;28;20587;-54
2022/12/01 12:27:55;;;;;;;74.63;44.87;;;1.40;73.70;;;;;;5061104;28;20461;-54
2022/12/01 12:30:25;;;;;;;71.73;43.73;;;1.50;74.20;;;;;;5065938;28;20522;-54
2022/12/01 12:33:13;;;;;;;65.20;41.20;;;1.50;75.70;;;;;;5078305;28;20461;-54
2022/12/01 12:35:50;;;;;;;65.37;41.73;;;1.50;77.30;;;;;;5071477;28;20512;-56
2022/12/01 12:38:36;;;;;;;67.23;42.57;;;1.60;75.60;;;;;;5073632;28;20457;-56
2022/12/01 12:41:18;;;;;;;73.40;45.67;;;1.50;77.60;;;;;;5058684;28;20489;-55
2022/12/01 12:43:53;;;;;;;68.20;42.90;;;1.50;78.80;;;;;;5066531;28;20586;-54
2022/12/01 12:46:27;;;;;;;81.37;49.17;;;1.50;74.00;;;;;;5071602;28;20512;-55
2022/12/01 12:49:08;;;;;;;69.73;44.57;;;1.50;76.30;;;;;;5069535;28;20484;-55
2022/12/01 12:51:40;;;;;;;70.87;44.97;;;1.50;74.10;;;;;;5060714;28;20489;-56
2022/12/01 12:54:17;;;;;;;69.80;43.27;;;1.50;77.00;;;;;;5065919;28;20489;-56
2022/12/01 12:56:47;;;;;;;77.63;44.93;;;1.50;75.40;;;;;;5065146;28;20524;-54